Time;durP1;ratioP1;P1;durP2;ratioP2;P2;SDS_P1;SDS_P2;PMS_P1;PMS_P2;Temp;Humidity;BMP_temperature;BMP_pressure;BME280_temperature;BME280_humidity;BME280_pressure;Samples;Min_cycle;Max_cycle;Signal;HPM_P1;HPM_P2
2022/07/12 00:02:16;;;;;;;;;;;;;;;;;;4997162;28;19913;-84
2022/07/12 00:04:42;;;;;;;;;;;;;;;;;;4963728;28;20269;-85
2022/07/12 00:07:07;;;;;;;;;;;;;;;;;;4996079;28;19917;-84
2022/07/12 00:09:32;;;;;;;;;;;;;;;;;;4997187;28;20304;-84
2022/07/12 00:11:58;;;;;;;;;;;;;;;;;;4997469;28;19913;-84
2022/07/12 00:14:23;;;;;;;;;;;;;;;;;;4997156;28;20284;-84
2022/07/12 00:16:49;;;;;;;;;;;;;;;;;;4980011;28;20457;-84
2022/07/12 00:19:14;;;;;;;;;;;;;;;;;;4995706;28;20327;-83
2022/07/12 00:21:39;;;;;;;;;;;;;;;;;;4996623;28;20008;-82
2022/07/12 00:24:05;;;;;;;;;;;;;;;;;;4995368;28;20020;-84
2022/07/12 00:26:30;;;;;;;;;;;;;;;;;;4995343;28;20455;-82
2022/07/12 00:28:57;;;;;;;;;;;;;;;;;;4995826;28;20317;-85
2022/07/12 00:31:22;;;;;;;;;;;;;;;;;;4996822;28;19914;-84
2022/07/12 00:33:50;;;;;;;;;;;;;;;;;;4978971;28;19936;-84
2022/07/12 00:36:16;;;;;;;;;;;;;;;;;;4996029;28;20456;-84
2022/07/12 00:38:42;;;;;;;;;;;;;;;;;;4994572;28;19967;-84
2022/07/12 00:41:07;;;;;;;;;;;;;;;;;;4994574;28;20412;-83
2022/07/12 00:43:32;;;;;;;;;;;;;;;;;;4995910;28;19910;-84
2022/07/12 00:45:58;;;;;;;;;;;;;;;;;;4978500;28;20435;-85
2022/07/12 00:48:23;;;;;;;;;;;;;;;;;;5016938;28;19921;-83
2022/07/12 00:50:49;;;;;;;;;;;;;;;;;;5019127;28;19920;-83
2022/07/12 00:53:14;;;;;;;;;;;;;;;;;;5004676;28;19929;-84
2022/07/12 00:55:39;;;;;;;;;;;;;;;;;;4988465;28;20365;-83
2022/07/12 00:58:05;;;;;;;;;;;;;;;;;;5004774;28;20356;-85
2022/07/12 01:00:30;;;;;;;;;;;;;;;;;;4975304;28;19944;-85
2022/07/12 01:02:56;;;;;;;;;;;;;;;;;;5028672;28;19914;-83
2022/07/12 01:05:21;;;;;;;;;;;;;;;;;;4991062;28;20268;-84
2022/07/12 01:07:47;;;;;;;;;;;;;;;;;;5002036;28;20262;-85
2022/07/12 01:10:12;;;;;;;;;;;;;;;;;;4978063;28;19956;-84
2022/07/12 01:12:37;;;;;;;;;;;;;;;;;;4977245;28;19965;-84
2022/07/12 01:15:03;;;;;;;;;;;;;;;;;;4961828;28;20328;-83
2022/07/12 01:17:30;;;;;;;;;;;;;;;;;;4978210;28;19964;-84
2022/07/12 01:19:56;;;;;;;;;;;;;;;;;;4994059;28;19918;-83
2022/07/12 01:22:21;;;;;;;;;;;;;;;;;;4977706;28;19914;-84
2022/07/12 01:24:47;;;;;;;;;;;;;;;;;;4967389;28;19937;-85
2022/07/12 01:27:12;;;;;;;;;;;;;;;;;;5001876;28;20420;-83
2022/07/12 01:29:37;;;;;;;;;;;;;;;;;;5005656;28;20328;-81
2022/07/12 01:32:24;;;;;;;;;;;;;;;;;;5006532;28;19921;-84
2022/07/12 01:34:48;;;;;;;;;;;;;;;;;;5007357;28;20009;-82
2022/07/12 01:37:14;;;;;;;;;;;;;;;;;;5005727;28;19914;-82
2022/07/12 01:39:39;;;;;;;;;;;;;;;;;;5020937;28;19937;-82
2022/07/12 01:42:05;;;;;;;;;;;;;;;;;;5000499;28;19914;-84
2022/07/12 01:44:31;;;;;;;;;;;;;;;;;;4997273;28;19925;-84
2022/07/12 01:46:57;;;;;;;;;;;;;;;;;;4993864;28;19957;-85
2022/07/12 01:49:22;;;;;;;;;;;;;;;;;;4977502;28;19914;-85
2022/07/12 01:51:48;;;;;;;;;;;;;;;;;;4993466;28;20293;-85
2022/07/12 01:54:13;;;;;;;;;;;;;;;;;;4961249;28;20373;-84
2022/07/12 01:56:39;;;;;;;;;;;;;;;;;;4961233;28;20385;-84
2022/07/12 01:59:04;;;;;;;;;;;;;;;;;;4977744;28;19961;-82
2022/07/12 02:01:30;;;;;;;;;;;;;;;;;;4997475;28;19965;-84
2022/07/12 02:03:55;;;;;;;;;;;;;;;;;;4975073;28;19898;-84
2022/07/12 02:06:20;;;;;;;;;;;;;;;;;;5016357;28;19918;-85
2022/07/12 02:08:46;;;;;;;;;;;;;;;;;;4983413;28;19926;-84
2022/07/12 02:11:11;;;;;;;;;;;;;;;;;;5014399;28;19925;-84
2022/07/12 02:13:37;;;;;;;;;;;;;;;;;;4979581;28;19977;-83
2022/07/12 02:16:02;;;;;;;;;;;;;;;;;;5028727;28;19913;-85
2022/07/12 02:18:27;;;;;;;;;;;;;;;;;;5011753;28;19913;-83
2022/07/12 02:20:53;;;;;;;;;;;;;;;;;;5002562;28;19986;-83
2022/07/12 02:23:18;;;;;;;;;;;;;;;;;;4994570;28;20335;-84
2022/07/12 02:25:43;;;;;;;;;;;;;;;;;;4960663;28;19913;-84
2022/07/12 02:28:09;;;;;;;;;;;;;;;;;;4993330;28;19913;-84
2022/07/12 02:30:34;;;;;;;;;;;;;;;;;;4994543;28;19914;-85
2022/07/12 02:33:00;;;;;;;;;;;;;;;;;;5009134;28;19913;-83
2022/07/12 02:35:25;;;;;;;;;;;;;;;;;;4994040;28;20098;-85
2022/07/12 02:37:51;;;;;;;;;;;;;;;;;;4995398;28;20293;-83
2022/07/12 02:43:00;;;;;;;;;;;;;;;;;;4994946;28;20012;-84
2022/07/12 02:45:26;;;;;;;;;;;;;;;;;;4994428;28;20064;-83
2022/07/12 02:47:51;;;;;;;;;;;;;;;;;;4962420;28;19917;-83
2022/07/12 02:50:16;;;;;;;;;;;;;;;;;;4995574;28;19968;-84
2022/07/12 02:52:42;;;;;;;;;;;;;;;;;;4994242;28;19956;-83
2022/07/12 02:55:07;;;;;;;;;;;;;;;;;;4961794;28;19921;-82
2022/07/12 02:57:33;;;;;;;;;;;;;;;;;;4964687;28;19913;-83
2022/07/12 02:59:58;;;;;;;;;;;;;;;;;;5002195;28;19914;-82
2022/07/12 03:02:23;;;;;;;;;;;;;;;;;;4986435;28;19914;-83
2022/07/12 03:04:49;;;;;;;;;;;;;;;;;;5006026;28;19914;-82
2022/07/12 03:07:14;;;;;;;;;;;;;;;;;;4986473;28;19917;-82
2022/07/12 03:09:40;;;;;;;;;;;;;;;;;;4995369;23;19926;-77
2022/07/12 03:12:07;;;;;;;;;;;;;;;;;;4940446;28;19969;-77
2022/07/12 03:14:32;;;;;;;;;;;;;;;;;;4955991;28;19925;-77
2022/07/12 03:16:57;;;;;;;;;;;;;;;;;;4956519;28;20004;-77
2022/07/12 03:19:23;;;;;;;;;;;;;;;;;;4973472;28;19993;-76
2022/07/12 03:21:48;;;;;;;;;;;;;;;;;;4940492;28;20460;-77
2022/07/12 03:24:14;;;;;;;;;;;;;;;;;;4940154;28;19921;-76
2022/07/12 03:26:39;;;;;;;;;;;;;;;;;;4924248;28;19921;-76
2022/07/12 03:29:05;;;;;;;;;;;;;;;;;;4973168;28;20025;-77
2022/07/12 03:31:31;;;;;;;;;;;;;;;;;;4956188;28;19954;-77
2022/07/12 03:33:56;;;;;;;;;;;;;;;;;;4940025;28;20016;-78
2022/07/12 03:36:22;;;;;;;;;;;;;;;;;;4976323;28;20011;-77
2022/07/12 03:38:47;;;;;;;;;;;;;;;;;;4977223;28;20005;-79
2022/07/12 03:41:13;;;;;;;;;;;;;;;;;;4959916;28;19918;-77
2022/07/12 03:43:38;;;;;;;;;;;;;;;;;;4959866;28;19918;-77
2022/07/12 03:46:04;;;;;;;;;;;;;;;;;;4960131;28;19910;-77
2022/07/12 03:48:29;;;;;;;;;;;;;;;;;;4959873;28;20266;-77
2022/07/12 03:50:55;;;;;;;;;;;;;;;;;;4959541;28;19963;-78
2022/07/12 03:53:21;;;;;;;;;;;;;;;;;;4976825;28;19914;-77
2022/07/12 03:55:46;;;;;;;;;;;;;;;;;;4977120;28;19914;-78
2022/07/12 03:58:12;;;;;;;;;;;;;;;;;;4943636;28;20026;-77
2022/07/12 04:00:38;;;;;;;;;;;;;;;;;;4959555;28;19968;-77
2022/07/12 04:03:03;;;;;;;;;;;;;;;;;;4976915;28;20397;-77
2022/07/12 04:05:29;;;;;;;;;;;;;;;;;;4959497;28;19918;-77
2022/07/12 04:07:54;;;;;;;;;;;;;;;;;;4959602;28;19921;-77
2022/07/12 04:10:20;;;;;;;;;;;;;;;;;;4959320;28;19925;-77
2022/07/12 04:12:45;;;;;;;;;;;;;;;;;;4943208;28;20342;-77
2022/07/12 04:15:11;;;;;;;;;;;;;;;;;;4976810;28;19950;-77
2022/07/12 04:17:37;;;;;;;;;;;;;;;;;;4943286;28;19964;-77
2022/07/12 04:20:02;;;;;;;;;;;;;;;;;;4976532;28;20258;-77
2022/07/12 04:22:28;;;;;;;;;;;;;;;;;;4942963;28;20294;-77
2022/07/12 04:24:54;;;;;;;;;;;;;;;;;;4976622;28;19921;-77
2022/07/12 04:27:19;;;;;;;;;;;;;;;;;;4958951;28;19910;-77
2022/07/12 04:29:45;;;;;;;;;;;;;;;;;;4959109;28;19914;-77
2022/07/12 04:32:11;;;;;;;;;;;;;;;;;;4959143;28;20000;-77
2022/07/12 04:34:37;;;;;;;;;;;;;;;;;;4976229;28;20385;-77
2022/07/12 04:37:02;;;;;;;;;;;;;;;;;;4975120;28;20364;-77
2022/07/12 04:39:28;;;;;;;;;;;;;;;;;;4958851;28;19930;-77
2022/07/12 04:41:53;;;;;;;;;;;;;;;;;;4958728;28;19949;-77
2022/07/12 04:44:19;;;;;;;;;;;;;;;;;;4975914;28;19926;-78
2022/07/12 04:46:44;;;;;;;;;;;;;;;;;;4975174;28;20374;-77
2022/07/12 04:49:10;;;;;;;;;;;;;;;;;;4958916;28;19914;-77
2022/07/12 04:51:36;;;;;;;;;;;;;;;;;;4958820;28;19917;-77
2022/07/12 04:54:01;;;;;;;;;;;;;;;;;;4975955;28;19997;-78
2022/07/12 04:56:26;;;;;;;;;;;;;;;;;;4958661;28;20263;-77
2022/07/12 04:58:52;;;;;;;;;;;;;;;;;;4975726;28;19914;-78
2022/07/12 05:01:17;;;;;;;;;;;;;;;;;;4975699;28;19918;-78
2022/07/12 05:03:43;;;;;;;;;;;;;;;;;;4975928;28;19921;-77
2022/07/12 05:06:08;;;;;;;;;;;;;;;;;;4976549;28;19918;-76
2022/07/12 05:08:34;;;;;;;;;;;;;;;;;;4958335;28;19914;-76
2022/07/12 05:10:59;;;;;;;;;;;;;;;;;;4958535;28;19973;-78
2022/07/12 05:13:25;;;;;;;;;;;;;;;;;;4975825;28;20301;-78
2022/07/12 05:15:51;;;;;;;;;;;;;;;;;;4958494;28;20341;-77
2022/07/12 05:18:16;;;;;;;;;;;;;;;;;;4975645;28;19941;-77
2022/07/12 05:20:42;;;;;;;;;;;;;;;;;;4942096;28;20401;-78
2022/07/12 05:23:07;;;;;;;;;;;;;;;;;;4957960;28;19920;-77
2022/07/12 05:25:33;;;;;;;;;;;;;;;;;;4957890;28;19915;-77
2022/07/12 05:27:59;;;;;;;;;;;;;;;;;;4957559;28;19914;-76
2022/07/12 05:30:25;;;;;;;;;;;;;;;;;;4957647;28;19914;-77
2022/07/12 05:32:50;;;;;;;;;;;;;;;;;;4957690;28;20005;-77
2022/07/12 05:35:22;;;;;;;;;;;;;;;;;;4926382;28;19915;-77
2022/07/12 05:37:48;;;;;;;;;;;;;;;;;;4957484;28;19914;-77
2022/07/12 05:40:13;;;;;;;;;;;;;;;;;;4974535;28;19918;-77
2022/07/12 05:42:39;;;;;;;;;;;;;;;;;;4957151;28;20293;-78
2022/07/12 05:45:04;;;;;;;;;;;;;;;;;;4941553;28;20000;-77
2022/07/12 05:47:30;;;;;;;;;;;;;;;;;;4974647;28;20397;-79
2022/07/12 05:49:55;;;;;;;;;;;;;;;;;;4957251;28;19914;-77
2022/07/12 05:55:16;;;;;;;;;;;;;;;;;;4890974;28;19915;-78
2022/07/12 05:57:41;;;;;;;;;;;;;;;;;;4957058;28;19907;-78
2022/07/12 06:00:06;;;;;;;;;;;;;;;;;;4957052;28;19922;-78
2022/07/12 06:02:32;;;;;;;;;;;;;;;;;;4974356;28;19969;-77
2022/07/12 06:04:57;;;;;;;;;;;;;;;;;;4925551;28;19914;-78
2022/07/12 06:07:23;;;;;;;;;;;;;;;;;;4973540;28;19950;-77
2022/07/12 06:09:48;;;;;;;;;;;;;;;;;;4941316;28;19922;-78
2022/07/12 06:12:14;;;;;;;;;;;;;;;;;;4974310;28;20026;-78
2022/07/12 06:14:39;;;;;;;;;;;;;;;;;;4956885;28;19914;-78
2022/07/12 06:17:08;;;;;;;;;;;;;;;;;;4941248;28;20333;-79
2022/07/12 06:19:34;;;;;;;;;;;;;;;;;;4940936;28;19914;-77
2022/07/12 06:22:00;;;;;;;;;;;;;;;;;;4940684;28;19926;-78
2022/07/12 06:24:25;;;;;;;;;;;;;;;;;;4940957;28;19914;-78
2022/07/12 06:26:51;;;;;;;;;;;;;;;;;;4956907;28;19914;-78
2022/07/12 06:29:16;;;;;;;;;;;;;;;;;;4956763;28;19914;-78
2022/07/12 06:31:42;;;;;;;;;;;;;;;;;;4973993;28;19914;-78
2022/07/12 06:34:07;;;;;;;;;;;;;;;;;;4956243;28;20250;-77
2022/07/12 06:36:33;;;;;;;;;;;;;;;;;;4940757;28;19921;-78
2022/07/12 06:38:58;;;;;;;;;;;;;;;;;;4940804;28;19917;-78
2022/07/12 06:41:30;;;;;;;;;;;;;;;;;;4957368;28;20285;-77
2022/07/12 06:43:56;;;;;;;;;;;;;;;;;;4956368;28;19914;-77
2022/07/12 06:46:21;;;;;;;;;;;;;;;;;;4956430;28;19913;-78
2022/07/12 06:48:47;;;;;;;;;;;;;;;;;;4956227;28;19914;-78
2022/07/12 06:51:12;;;;;;;;;;;;;;;;;;4956518;28;19922;-78
2022/07/12 06:53:38;;;;;;;;;;;;;;;;;;4956458;28;20356;-77
2022/07/12 06:56:03;;;;;;;;;;;;;;;;;;4941098;28;20014;-78
2022/07/12 06:58:29;;;;;;;;;;;;;;;;;;4956365;28;19918;-78
2022/07/12 07:00:54;;;;;;;;;;;;;;;;;;4956155;28;19918;-77
2022/07/12 07:03:20;;;;;;;;;;;;;;;;;;4973559;28;20052;-77
2022/07/12 07:05:45;;;;;;;;;;;;;;;;;;4940102;28;20285;-78
2022/07/12 07:08:11;;;;;;;;;;;;;;;;;;4924757;28;19969;-77
2022/07/12 07:10:36;;;;;;;;;;;;;;;;;;4972903;28;20009;-78
2022/07/12 07:13:02;;;;;;;;;;;;;;;;;;4973618;28;19910;-78
2022/07/12 07:15:27;;;;;;;;;;;;;;;;;;4940051;28;19929;-78
2022/07/12 07:17:53;;;;;;;;;;;;;;;;;;4956292;28;19920;-79
2022/07/12 07:20:19;;;;;;;;;;;;;;;;;;4955674;28;20000;-79
2022/07/12 07:22:44;;;;;;;;;;;;;;;;;;4939989;28;19914;-78
2022/07/12 07:25:10;;;;;;;;;;;;;;;;;;4955797;28;20245;-78
2022/07/12 07:27:35;;;;;;;;;;;;;;;;;;4972853;28;19910;-78
2022/07/12 07:32:45;;;;;;;;;;;;;;;;;;4955382;28;20105;-77
2022/07/12 07:35:11;;;;;;;;;;;;;;;;;;4955695;28;19946;-78
2022/07/12 07:37:36;;;;;;;;;;;;;;;;;;4955885;28;19938;-78
2022/07/12 07:40:02;;;;;;;;;;;;;;;;;;4939567;28;19918;-77
2022/07/12 07:42:28;;;;;;;;;;;;;;;;;;4939860;28;19965;-78
2022/07/12 07:44:54;;;;;;;;;;;;;;;;;;4939744;28;19922;-78
2022/07/12 07:47:19;;;;;;;;;;;;;;;;;;4972784;28;19925;-79
2022/07/12 07:49:45;;;;;;;;;;;;;;;;;;4939622;28;20422;-78
2022/07/12 07:52:10;;;;;;;;;;;;;;;;;;4939777;28;19914;-79
2022/07/12 07:54:35;;;;;;;;;;;;;;;;;;4939820;28;19918;-77
2022/07/12 07:57:01;;;;;;;;;;;;;;;;;;4939826;28;19921;-77
2022/07/12 07:59:26;;;;;;;;;;;;;;;;;;4955450;28;20297;-77
2022/07/12 08:01:52;;;;;;;;;;;;;;;;;;4972736;28;19918;-77
2022/07/12 08:04:18;;;;;;;;;;;;;;;;;;4972697;28;19914;-77
2022/07/12 08:06:43;;;;;;;;;;;;;;;;;;4955595;28;19918;-78
2022/07/12 08:09:09;;;;;;;;;;;;;;;;;;4972713;28;19922;-77
2022/07/12 08:11:34;;;;;;;;;;;;;;;;;;4955396;28;19968;-77
2022/07/12 08:14:00;;;;;;;;;;;;;;;;;;4939451;28;19915;-77
2022/07/12 08:16:25;;;;;;;;;;;;;;;;;;4955545;28;19914;-77
2022/07/12 08:18:51;;;;;;;;;;;;;;;;;;4972535;28;19965;-78
2022/07/12 08:21:17;;;;;;;;;;;;;;;;;;4973694;28;20412;-77
2022/07/12 08:23:42;;;;;;;;;;;;;;;;;;4942946;28;20373;-77
2022/07/12 08:26:08;;;;;;;;;;;;;;;;;;4976303;28;19957;-78
2022/07/12 08:28:33;;;;;;;;;;;;;;;;;;4976217;28;20013;-77
2022/07/12 08:30:59;;;;;;;;;;;;;;;;;;4976015;28;19953;-80
2022/07/12 08:33:24;;;;;;;;;;;;;;;;;;4942866;28;20369;-78
2022/07/12 08:35:50;;;;;;;;;;;;;;;;;;4958858;28;20029;-77
2022/07/12 08:38:16;;;;;;;;;;;;;;;;;;4943306;28;19949;-78
2022/07/12 08:40:41;;;;;;;;;;;;;;;;;;4942644;28;19940;-78
2022/07/12 08:43:07;;;;;;;;;;;;;;;;;;4958992;28;19941;-79
2022/07/12 08:45:32;;;;;;;;;;;;;;;;;;4958755;28;19914;-79
2022/07/12 08:47:58;;;;;;;;;;;;;;;;;;4975898;28;19921;-78
2022/07/12 08:50:24;;;;;;;;;;;;;;;;;;4958603;28;19921;-79
2022/07/12 08:52:49;;;;;;;;;;;;;;;;;;4942636;28;20017;-78
2022/07/12 08:55:16;;;;;;;;;;;;;;;;;;4975979;28;19941;-79
2022/07/12 08:57:41;;;;;;;;;;;;;;;;;;4976361;28;20400;-80
2022/07/12 09:00:07;;;;;;;;;;;;;;;;;;4942336;28;19914;-79
2022/07/12 09:02:32;;;;;;;;;;;;;;;;;;4943145;28;19914;-78
2022/07/12 09:04:58;;;;;;;;;;;;;;;;;;4942943;28;19964;-79
2022/07/12 09:07:23;;;;;;;;;;;;;;;;;;4976511;28;19914;-79
2022/07/12 09:09:49;;;;;;;;;;;;;;;;;;4926596;28;19922;-79
2022/07/12 09:12:14;;;;;;;;;;;;;;;;;;4958741;28;19956;-80
2022/07/12 09:14:40;;;;;;;;;;;;;;;;;;4975500;28;19936;-77
2022/07/12 09:17:09;;;;;;;;;;;;;;;;;;5053464;23;19925;-90
2022/07/12 09:19:35;;;;;;;;;;;;;;;;;;4998266;28;19921;-89
2022/07/12 09:22:00;;;;;;;;;;;;;;;;;;4998221;28;19926;-89
2022/07/12 09:24:25;;;;;;;;;;;;;;;;;;4998755;28;19910;-89
2022/07/12 09:26:51;;;;;;;;;;;;;;;;;;5000160;28;19938;-90
2022/07/12 09:29:18;;;;;;;;;;;;;;;;;;4998757;28;19902;-87
2022/07/12 09:37:13;;;;;;;;;;;;;;;;;;4999959;28;19902;-92
2022/07/12 09:39:38;;;;;;;;;;;;;;;;;;4983092;28;19903;-93
2022/07/12 09:42:03;;;;;;;;;;;;;;;;;;4999527;28;19914;-92
2022/07/12 09:47:15;;;;;;;;;;;;;;;;;;5029536;23;19930;-89
2022/07/12 09:49:41;;;;;;;;;;;;;;;;;;4932571;28;19907;-93
2022/07/12 09:52:31;;;;;;;;;;;;;;;;;;4949722;28;19918;-91
2022/07/12 09:54:59;;;;;;;;;;;;;;;;;;4927116;29;19986;-88
2022/07/12 09:57:25;;;;;;;;;;;;;;;;;;4940679;29;20255;-87
2022/07/12 09:59:52;;;;;;;;;;;;;;;;;;4937150;29;19910;-87
2022/07/12 10:02:17;;;;;;;;;;;;;;;;;;4936679;29;19922;-88
2022/07/12 10:04:43;;;;;;;;;;;;;;;;;;4916955;29;19996;-86
2022/07/12 10:07:09;;;;;;;;;;;;;;;;;;4926530;29;19968;-86
2022/07/12 10:09:35;;;;;;;;;;;;;;;;;;4924209;29;20501;-86
2022/07/12 10:12:01;;;;;;;;;;;;;;;;;;4924967;29;20373;-88
2022/07/12 10:14:26;;;;;;;;;;;;;;;;;;4956061;29;19914;-88
2022/07/12 10:16:52;;;;;;;;;;;;;;;;;;4922739;29;19962;-87
2022/07/12 10:19:21;;;;;;;;;;;;;;;;;;4956042;29;19957;-88
2022/07/12 10:21:46;;;;;;;;;;;;;;;;;;4907393;29;20004;-88
2022/07/12 10:24:12;;;;;;;;;;;;;;;;;;4956177;29;19914;-87
2022/07/12 10:26:38;;;;;;;;;;;;;;;;;;4939133;29;19941;-87
2022/07/12 10:29:07;;;;;;;;;;;;;;;;;;4939434;29;19915;-88
2022/07/12 10:31:32;;;;;;;;;;;;;;;;;;4940753;29;19921;-88
2022/07/12 10:33:57;;;;;;;;;;;;;;;;;;4908498;29;20345;-86
2022/07/12 10:36:23;;;;;;;;;;;;;;;;;;4923304;29;19922;-87
2022/07/12 10:38:49;;;;;;;;;;;;;;;;;;4923656;29;19918;-88
2022/07/12 10:41:14;;;;;;;;;;;;;;;;;;4923895;29;19925;-88
2022/07/12 10:46:25;;;;;;;;;;;;;;;;;;4956660;28;19964;-87
2022/07/12 10:48:50;;;;;;;;;;;;;;;;;;4937695;29;20317;-88
2022/07/12 10:51:16;;;;;;;;;;;;;;;;;;4923461;29;20013;-88
2022/07/12 10:53:42;;;;;;;;;;;;;;;;;;4954641;29;20100;-87
2022/07/12 10:56:09;;;;;;;;;;;;;;;;;;4974132;28;20389;-86
2022/07/12 10:58:34;;;;;;;;;;;;;;;;;;4955448;29;19906;-86
2022/07/12 11:01:00;;;;;;;;;;;;;;;;;;4957720;29;19982;-86
2022/07/12 11:03:25;;;;;;;;;;;;;;;;;;4963816;29;19915;-87
2022/07/12 11:05:51;;;;;;;;;;;;;;;;;;4908588;28;19925;-87
2022/07/12 11:08:16;;;;;;;;;;;;;;;;;;4907937;29;19914;-87
2022/07/12 11:10:42;;;;;;;;;;;;;;;;;;4955628;29;19966;-87
2022/07/12 11:13:07;;;;;;;;;;;;;;;;;;4955946;29;19936;-87
2022/07/12 11:15:33;;;;;;;;;;;;;;;;;;4922637;28;20333;-88
2022/07/12 11:17:58;;;;;;;;;;;;;;;;;;4955799;29;20402;-88
2022/07/12 11:20:26;;;;;;;;;;;;;;;;;;4939017;29;19974;-87
2022/07/12 11:22:51;;;;;;;;;;;;;;;;;;4939677;29;19945;-87
2022/07/12 11:25:17;;;;;;;;;;;;;;;;;;4938397;29;20309;-87
2022/07/12 11:27:43;;;;;;;;;;;;;;;;;;4906450;29;19918;-88
2022/07/12 11:30:08;;;;;;;;;;;;;;;;;;4922354;29;19919;-87
2022/07/12 11:32:34;;;;;;;;;;;;;;;;;;4937319;29;20313;-88
2022/07/12 11:35:03;;;;;;;;;;;;;;;;;;4921926;29;20005;-86
2022/07/12 11:37:32;;;;;;;;;;;;;;;;;;4906366;29;20365;-87
2022/07/12 11:39:57;;;;;;;;;;;;;;;;;;4905812;29;19915;-88
2022/07/12 11:42:23;;;;;;;;;;;;;;;;;;4937580;29;19918;-88
2022/07/12 11:44:49;;;;;;;;;;;;;;;;;;4922334;29;19915;-88
2022/07/12 11:47:14;;;;;;;;;;;;;;;;;;4921557;29;19918;-89
2022/07/12 11:49:44;;;;;;;;;;;;;;;;;;4906028;29;19917;-86
2022/07/12 11:52:09;;;;;;;;;;;;;;;;;;4926561;29;19919;-87
2022/07/12 11:54:38;;;;;;;;;;;;;;;;;;4924290;29;20333;-88
2022/07/12 11:57:04;;;;;;;;;;;;;;;;;;4930280;29;19922;-85
2022/07/12 11:59:29;;;;;;;;;;;;;;;;;;4917479;29;19911;-87
2022/07/12 12:01:55;;;;;;;;;;;;;;;;;;4937151;29;19918;-88
2022/07/12 12:04:20;;;;;;;;;;;;;;;;;;4936906;29;19921;-87
2022/07/12 12:06:45;;;;;;;;;;;;;;;;;;4953031;29;19981;-88
2022/07/12 12:09:11;;;;;;;;;;;;;;;;;;4963824;29;19922;-87
2022/07/12 12:11:36;;;;;;;;;;;;;;;;;;4926050;29;19960;-87
2022/07/12 12:14:02;;;;;;;;;;;;;;;;;;4925061;29;20321;-87
2022/07/12 12:16:28;;;;;;;;;;;;;;;;;;4941102;29;20480;-88
2022/07/12 12:18:53;;;;;;;;;;;;;;;;;;4924773;29;20388;-88
2022/07/12 12:21:20;;;;;;;;;;;;;;;;;;4925681;29;20439;-87
2022/07/12 12:23:45;;;;;;;;;;;;;;;;;;4924845;29;19915;-86
2022/07/12 12:26:11;;;;;;;;;;;;;;;;;;4908905;29;20027;-88
2022/07/12 12:28:36;;;;;;;;;;;;;;;;;;4924182;29;19918;-88
2022/07/12 12:31:02;;;;;;;;;;;;;;;;;;4941430;29;19925;-89
2022/07/12 12:33:27;;;;;;;;;;;;;;;;;;4908677;29;19918;-86
2022/07/12 12:35:52;;;;;;;;;;;;;;;;;;4908837;29;19915;-87
2022/07/12 12:38:18;;;;;;;;;;;;;;;;;;4957995;29;19914;-87
2022/07/12 12:40:43;;;;;;;;;;;;;;;;;;4909151;29;19918;-88
2022/07/12 12:43:09;;;;;;;;;;;;;;;;;;4924970;29;19926;-87
2022/07/12 12:45:34;;;;;;;;;;;;;;;;;;4940584;28;19915;-89
2022/07/12 12:48:00;;;;;;;;;;;;;;;;;;4925357;29;19929;-88
2022/07/12 12:50:25;;;;;;;;;;;;;;;;;;4925709;29;19914;-86
2022/07/12 12:52:51;;;;;;;;;;;;;;;;;;4910632;29;20290;-87
2022/07/12 12:55:16;;;;;;;;;;;;;;;;;;4959119;29;20394;-87
2022/07/12 12:57:42;;;;;;;;;;;;;;;;;;4960487;28;20354;-88
2022/07/12 13:00:07;;;;;;;;;;;;;;;;;;4946878;29;19915;-87
2022/07/12 13:02:33;;;;;;;;;;;;;;;;;;4962753;29;20378;-86
2022/07/12 13:04:58;;;;;;;;;;;;;;;;;;4929048;29;19923;-88
2022/07/12 13:07:24;;;;;;;;;;;;;;;;;;4926574;29;19914;-88
2022/07/12 13:09:49;;;;;;;;;;;;;;;;;;4927569;29;20389;-87
2022/07/12 13:12:14;;;;;;;;;;;;;;;;;;4927723;29;19911;-85
2022/07/12 13:14:40;;;;;;;;;;;;;;;;;;4941413;29;20458;-87
2022/07/12 13:17:05;;;;;;;;;;;;;;;;;;4926523;29;19911;-89
2022/07/12 13:19:31;;;;;;;;;;;;;;;;;;4927824;29;19942;-89
2022/07/12 13:21:57;;;;;;;;;;;;;;;;;;4910627;29;20477;-85
2022/07/12 13:24:22;;;;;;;;;;;;;;;;;;4925972;29;19958;-86
2022/07/12 13:26:48;;;;;;;;;;;;;;;;;;4925718;29;19914;-87
2022/07/12 13:29:13;;;;;;;;;;;;;;;;;;4926133;29;19921;-87
2022/07/12 13:31:39;;;;;;;;;;;;;;;;;;4926089;29;19918;-87
2022/07/12 13:34:05;;;;;;;;;;;;;;;;;;4940416;29;19922;-86
2022/07/12 13:36:31;;;;;;;;;;;;;;;;;;4956680;28;20017;-86
2022/07/12 13:40:10;;;;;;;;;;;;;;;;;;4941733;29;19961;-87
2022/07/12 13:41:42;;;;;;;;;;;;;;;;;;4956398;29;20054;-86
2022/07/12 13:44:07;;;;;;;;;;;;;;;;;;4923013;29;19946;-88
2022/07/12 13:46:32;;;;;;;;;;;;;;;;;;4956800;28;19926;-86
2022/07/12 13:48:58;;;;;;;;;;;;;;;;;;4907823;29;20012;-87
2022/07/12 13:51:23;;;;;;;;;;;;;;;;;;4907901;29;20369;-87
2022/07/12 13:53:49;;;;;;;;;;;;;;;;;;4907773;29;19919;-86
2022/07/12 13:56:14;;;;;;;;;;;;;;;;;;4922846;29;19992;-86
2022/07/12 13:58:40;;;;;;;;;;;;;;;;;;4923817;29;20337;-86
2022/07/12 14:01:05;;;;;;;;;;;;;;;;;;4907562;29;19919;-88
2022/07/12 14:03:31;;;;;;;;;;;;;;;;;;4907730;29;20314;-87
2022/07/12 14:05:56;;;;;;;;;;;;;;;;;;4907075;29;19918;-87
2022/07/12 14:08:22;;;;;;;;;;;;;;;;;;4938451;29;20273;-86
2022/07/12 14:10:47;;;;;;;;;;;;;;;;;;4941042;29;19949;-86
2022/07/12 14:13:13;;;;;;;;;;;;;;;;;;4938033;29;19969;-88
2022/07/12 14:15:39;;;;;;;;;;;;;;;;;;4922703;28;20123;-88
2022/07/12 14:18:05;;;;;;;;;;;;;;;;;;4907177;29;19915;-86
2022/07/12 14:20:30;;;;;;;;;;;;;;;;;;4955445;28;19960;-87
2022/07/12 14:22:56;;;;;;;;;;;;;;;;;;4938322;29;20295;-87
2022/07/12 14:25:21;;;;;;;;;;;;;;;;;;4939092;29;20374;-89
2022/07/12 14:27:46;;;;;;;;;;;;;;;;;;4938442;29;19961;-88
2022/07/12 14:30:12;;;;;;;;;;;;;;;;;;4938806;29;19925;-88
2022/07/12 14:32:39;;;;;;;;;;;;;;;;;;4938417;29;19925;-85
2022/07/12 14:35:05;;;;;;;;;;;;;;;;;;4926920;29;19958;-89
2022/07/12 14:37:30;;;;;;;;;;;;;;;;;;4941480;29;19920;-88
2022/07/12 14:39:56;;;;;;;;;;;;;;;;;;4908613;29;19918;-86
2022/07/12 14:42:21;;;;;;;;;;;;;;;;;;4924222;29;19918;-86
2022/07/12 14:44:47;;;;;;;;;;;;;;;;;;4923751;29;19965;-87
2022/07/12 14:47:13;;;;;;;;;;;;;;;;;;4923489;29;20297;-87
2022/07/12 14:49:39;;;;;;;;;;;;;;;;;;4925378;29;19915;-87
2022/07/12 14:52:05;;;;;;;;;;;;;;;;;;4909465;29;19937;-88
2022/07/12 14:54:31;;;;;;;;;;;;;;;;;;4910428;29;19914;-88
2022/07/12 14:56:56;;;;;;;;;;;;;;;;;;4923396;29;19969;-86
2022/07/12 14:59:22;;;;;;;;;;;;;;;;;;4907030;29;19914;-86
2022/07/12 15:01:49;;;;;;;;;;;;;;;;;;4923410;29;19938;-88
2022/07/12 15:04:14;;;;;;;;;;;;;;;;;;4907131;29;19910;-87
2022/07/12 15:06:39;;;;;;;;;;;;;;;;;;4957875;28;19915;-86
2022/07/12 15:09:05;;;;;;;;;;;;;;;;;;4939167;29;19922;-86
2022/07/12 15:11:31;;;;;;;;;;;;;;;;;;4908695;29;19968;-90
2022/07/12 15:13:56;;;;;;;;;;;;;;;;;;4924641;29;19918;-89
2022/07/12 15:16:21;;;;;;;;;;;;;;;;;;4928184;29;19926;-82
2022/07/12 15:18:47;;;;;;;;;;;;;;;;;;4929886;29;20315;-87
2022/07/12 15:21:13;;;;;;;;;;;;;;;;;;4934884;23;19976;-77
2022/07/12 15:23:38;;;;;;;;;;;;;;;;;;4952680;29;19918;-78
2022/07/12 15:26:05;;;;;;;;;;;;;;;;;;4954143;29;19919;-77
2022/07/12 15:28:30;;;;;;;;;;;;;;;;;;4952767;28;19914;-77
2022/07/12 15:30:56;;;;;;;;;;;;;;;;;;4953157;28;19970;-77
2022/07/12 15:33:21;;;;;;;;;;;;;;;;;;4957884;29;19915;-76
2022/07/12 15:35:47;;;;;;;;;;;;;;;;;;4924961;29;19965;-77
2022/07/12 15:38:12;;;;;;;;;;;;;;;;;;4958069;29;19945;-76
2022/07/12 15:40:38;;;;;;;;;;;;;;;;;;4940653;29;19918;-76
2022/07/12 15:43:04;;;;;;;;;;;;;;;;;;4940701;29;19919;-77
2022/07/12 15:45:32;;;;;;;;;;;;;;;;;;4957544;29;20317;-78
2022/07/12 15:47:58;;;;;;;;;;;;;;;;;;4908990;29;19921;-77
2022/07/12 15:50:24;;;;;;;;;;;;;;;;;;4924513;29;19918;-78
2022/07/12 15:55:34;;;;;;;;;;;;;;;;;;4926225;29;19926;-78
2022/07/12 15:57:59;;;;;;;;;;;;;;;;;;4941143;29;19922;-78
2022/07/12 16:00:25;;;;;;;;;;;;;;;;;;4920154;29;19914;-79
2022/07/12 16:02:50;;;;;;;;;;;;;;;;;;4921165;29;19915;-78
2022/07/12 16:05:16;;;;;;;;;;;;;;;;;;4906073;29;20305;-78
2022/07/12 16:07:41;;;;;;;;;;;;;;;;;;4921780;29;19915;-79
2022/07/12 16:10:07;;;;;;;;;;;;;;;;;;4938645;29;19911;-79
2022/07/12 16:12:32;;;;;;;;;;;;;;;;;;4921948;29;20433;-78
2022/07/12 16:14:58;;;;;;;;;;;;;;;;;;4921344;29;19995;-78
2022/07/12 16:17:24;;;;;;;;;;;;;;;;;;4938118;29;19923;-79
2022/07/12 16:19:49;;;;;;;;;;;;;;;;;;4909172;29;20001;-78
2022/07/12 16:22:15;;;;;;;;;;;;;;;;;;4940937;29;19925;-77
2022/07/12 16:24:40;;;;;;;;;;;;;;;;;;4940042;29;19941;-78
2022/07/12 16:27:06;;;;;;;;;;;;;;;;;;4908610;29;19921;-78
2022/07/12 16:29:33;;;;;;;;;;;;;;;;;;4940219;29;19914;-78
2022/07/12 16:31:59;;;;;;;;;;;;;;;;;;4924228;29;20026;-78
2022/07/12 16:34:24;;;;;;;;;;;;;;;;;;4951088;29;19915;-78
2022/07/12 16:36:50;;;;;;;;;;;;;;;;;;4937587;29;19927;-78
2022/07/12 16:39:15;;;;;;;;;;;;;;;;;;4937853;29;20378;-78
2022/07/12 16:41:41;;;;;;;;;;;;;;;;;;4937512;29;19962;-77
2022/07/12 16:44:06;;;;;;;;;;;;;;;;;;4936215;29;19970;-81
2022/07/12 16:46:31;;;;;;;;;;;;;;;;;;4920780;29;19921;-77
2022/07/12 16:49:00;;;;;;;;;;;;;;;;;;4905278;29;20370;-84
2022/07/12 16:51:30;;;;;;;;;;;;;;;;;;4918112;29;19914;-79
2022/07/12 16:53:56;;;;;;;;;;;;;;;;;;4936160;29;19918;-81
2022/07/12 16:56:22;;;;;;;;;;;;;;;;;;4936798;29;20014;-82
2022/07/12 16:58:48;;;;;;;;;;;;;;;;;;4905011;29;20001;-80